createdAt,value
2019-01-16T00:01:36.050Z,23.10
2019-01-16T00:04:42.844Z,23.60
2019-01-16T00:07:38.893Z,21.60
2019-01-16T00:10:45.061Z,19.50
2019-01-16T00:13:59.983Z,19.00
2019-01-16T00:16:59.556Z,18.10
2019-01-16T00:20:06.405Z,16.40
2019-01-16T00:23:20.145Z,14.00
2019-01-16T00:26:29.731Z,12.90
2019-01-16T00:29:39.023Z,13.00
2019-01-16T00:32:44.534Z,12.10
2019-01-16T00:35:49.728Z,10.50
2019-01-16T00:38:54.979Z,10.60
2019-01-16T00:42:10.769Z,9.90
2019-01-16T00:45:19.558Z,9.60
2019-01-16T00:48:37.744Z,9.90
2019-01-16T00:51:33.349Z,10.00
2019-01-16T00:54:54.040Z,11.00
2019-01-16T00:57:59.764Z,10.80
2019-01-16T01:01:08.225Z,9.00
2019-01-16T01:04:15.929Z,9.60
2019-01-16T01:07:28.585Z,9.00
2019-01-16T01:10:36.123Z,8.80
2019-01-16T01:13:39.555Z,8.40
2019-01-16T01:16:36.861Z,7.10
2019-01-16T01:19:52.642Z,5.00
2019-01-16T01:22:59.671Z,3.70
2019-01-16T01:26:03.706Z,3.60
2019-01-16T01:29:02.566Z,5.30
2019-01-16T01:32:08.451Z,5.70
2019-01-16T01:35:23.344Z,6.10
2019-01-16T01:38:43.705Z,6.50
2019-01-16T01:41:49.155Z,6.70
2019-01-16T01:45:01.889Z,6.70
2019-01-16T01:48:11.480Z,6.70
2019-01-16T01:51:16.918Z,6.10
2019-01-16T01:54:27.133Z,6.10
2019-01-16T01:57:43.205Z,6.70
2019-01-16T02:01:08.677Z,6.40
2019-01-16T02:04:08.488Z,5.00
2019-01-16T02:07:22.693Z,5.00
2019-01-16T02:10:25.224Z,5.00
2019-01-16T02:13:40.511Z,3.60
2019-01-16T02:16:46.936Z,3.30
2019-01-16T02:19:52.336Z,3.30
2019-01-16T02:22:50.270Z,3.10
2019-01-16T02:25:59.912Z,2.70
2019-01-16T02:29:12.512Z,1.10
2019-01-16T02:32:11.996Z,1.90
2019-01-16T02:35:19.224Z,1.20
2019-01-16T02:38:15.398Z,1.90
2019-01-16T02:41:26.370Z,1.60
2019-01-16T02:44:36.040Z,3.00
2019-01-16T02:47:41.128Z,2.50
2019-01-16T02:50:46.663Z,3.10
2019-01-16T02:53:44.343Z,3.60
2019-01-16T02:56:54.330Z,3.60
2019-01-16T02:59:49.561Z,4.90
2019-01-16T03:02:55.190Z,6.40
2019-01-16T03:06:06.141Z,7.50
2019-01-16T03:09:17.068Z,7.80
2019-01-16T03:12:18.608Z,8.80
2019-01-16T03:15:23.423Z,8.20
2019-01-16T03:18:24.911Z,6.60
2019-01-16T03:21:24.261Z,6.60
2019-01-16T03:24:26.996Z,6.50
2019-01-16T03:27:26.463Z,5.90
2019-01-16T03:30:33.501Z,6.10
2019-01-16T03:33:39.426Z,6.90
2019-01-16T03:36:38.141Z,7.50
2019-01-16T03:39:57.315Z,7.90
2019-01-16T03:43:09.264Z,8.10
2019-01-16T03:46:14.408Z,7.40
2019-01-16T03:49:18.470Z,7.50
2019-01-16T03:52:23.561Z,7.50
2019-01-16T03:55:38.429Z,7.80
2019-01-16T03:58:40.043Z,8.70
2019-01-16T04:01:45.926Z,9.30
2019-01-16T04:04:46.505Z,10.70
2019-01-16T04:07:53.299Z,12.60
2019-01-16T04:10:58.603Z,13.00
2019-01-16T04:14:03.526Z,13.80
2019-01-16T04:17:13.084Z,15.00
2019-01-16T04:20:19.101Z,15.80
2019-01-16T04:23:41.313Z,16.30
2019-01-16T04:27:03.094Z,16.80
2019-01-16T04:29:57.860Z,17.40
2019-01-16T04:32:58.032Z,17.80
2019-01-16T04:36:03.685Z,18.00
2019-01-16T04:39:17.015Z,18.80
2019-01-16T04:42:26.472Z,18.70
2019-01-16T04:45:37.845Z,19.00
2019-01-16T04:48:47.551Z,18.90
2019-01-16T04:51:54.790Z,16.60
2019-01-16T04:54:51.175Z,15.80
2019-01-16T04:58:08.559Z,11.30
2019-01-16T05:01:05.592Z,10.50
2019-01-16T05:04:20.764Z,10.00
2019-01-16T05:07:27.586Z,7.90
2019-01-16T05:10:38.460Z,8.40
2019-01-16T05:13:42.724Z,7.10
2019-01-16T05:16:46.510Z,7.10
2019-01-16T05:19:42.356Z,6.00
2019-01-16T05:23:02.857Z,5.70
2019-01-16T05:26:18.371Z,5.80
2019-01-16T05:29:37.319Z,6.40
2019-01-16T05:32:42.696Z,7.10
2019-01-16T05:36:01.267Z,7.90
2019-01-16T05:39:12.612Z,9.00
2019-01-16T05:42:14.635Z,9.60
2019-01-16T05:45:21.628Z,9.10
2019-01-16T05:48:27.093Z,10.30
2019-01-16T05:51:22.712Z,10.60
2019-01-16T05:54:35.435Z,11.10
2019-01-16T05:57:44.807Z,10.90
2019-01-16T06:00:57.472Z,10.40
2019-01-16T06:04:13.108Z,9.70
2019-01-16T06:07:31.740Z,9.20
2019-01-16T06:10:41.594Z,9.10
2019-01-16T06:13:55.780Z,8.60
2019-01-16T06:17:08.696Z,7.10
2019-01-16T06:20:13.273Z,6.50
2019-01-16T06:23:29.478Z,6.70
2019-01-16T06:26:31.260Z,6.10
2019-01-16T06:29:36.310Z,4.70
2019-01-16T06:32:42.003Z,4.70
2019-01-16T06:35:41.336Z,4.10
2019-01-16T06:38:41.612Z,4.70
2019-01-16T06:41:56.589Z,3.00
2019-01-16T06:44:54.541Z,2.20
2019-01-16T06:48:04.228Z,2.10
2019-01-16T06:51:06.687Z,1.40
2019-01-16T06:54:01.283Z,1.50
2019-01-16T06:57:07.085Z,2.00
2019-01-16T07:00:07.669Z,1.60
2019-01-16T07:03:13.773Z,2.10
2019-01-16T07:06:19.607Z,1.70
2019-01-16T07:09:20.641Z,1.70
2019-01-16T07:12:42.927Z,2.60
2019-01-16T07:15:58.508Z,2.60
2019-01-16T07:19:01.114Z,3.40
2019-01-16T07:22:14.043Z,2.20
2019-01-16T07:25:20.522Z,2.20
2019-01-16T07:28:21.983Z,2.90
2019-01-16T07:31:26.466Z,2.70
2019-01-16T07:34:36.799Z,2.00
2019-01-16T07:37:34.017Z,1.40
2019-01-16T07:40:40.836Z,1.50
2019-01-16T07:43:50.096Z,1.00
2019-01-16T07:46:54.124Z,1.00
2019-01-16T07:50:17.513Z,1.00
2019-01-16T07:53:30.325Z,1.00
2019-01-16T07:56:31.825Z,1.00
2019-01-16T07:59:36.865Z,1.00
2019-01-16T08:02:41.852Z,1.00
2019-01-16T08:05:55.147Z,1.00
2019-01-16T08:08:50.863Z,1.00
2019-01-16T08:12:02.813Z,1.00
2019-01-16T08:15:05.088Z,1.00
2019-01-16T08:18:01.518Z,1.00
2019-01-16T08:21:06.692Z,1.00
2019-01-16T08:24:17.718Z,1.40
2019-01-16T08:27:23.704Z,1.50
2019-01-16T08:30:29.277Z,1.50
2019-01-16T08:33:35.578Z,1.50
2019-01-16T08:36:57.820Z,1.70
2019-01-16T08:40:03.128Z,2.20
2019-01-16T08:43:12.607Z,2.20
2019-01-16T08:46:16.086Z,3.00
2019-01-16T08:49:22.279Z,3.40
2019-01-16T08:52:33.717Z,3.70
2019-01-16T08:55:39.181Z,3.30
2019-01-16T08:58:39.418Z,3.20
2019-01-16T09:01:45.040Z,3.10
2019-01-16T09:04:45.624Z,2.40
2019-01-16T09:08:07.808Z,1.50
2019-01-16T09:11:17.724Z,2.10
2019-01-16T09:14:34.422Z,2.70
2019-01-16T09:17:42.290Z,1.50
2019-01-16T09:20:49.517Z,1.90
2019-01-16T09:23:49.947Z,1.50
2019-01-16T09:26:43.783Z,1.50
2019-01-16T09:30:05.843Z,1.50
2019-01-16T09:33:18.896Z,1.60
2019-01-16T09:36:14.037Z,1.00
2019-01-16T09:39:14.700Z,1.00
2019-01-16T09:42:24.455Z,1.00
2019-01-16T09:45:30.187Z,1.50
2019-01-16T09:48:27.397Z,1.60
2019-01-16T09:51:36.033Z,1.00
2019-01-16T09:54:41.877Z,1.00
2019-01-16T09:57:50.598Z,1.00
2019-01-16T10:00:50.073Z,1.00
2019-01-16T10:03:56.423Z,1.00
2019-01-16T10:07:10.680Z,1.00
2019-01-16T10:10:20.189Z,1.00
2019-01-16T10:13:39.128Z,1.00
2019-01-16T10:16:39.350Z,1.00
2019-01-16T10:19:47.573Z,1.00
2019-01-16T10:22:59.041Z,1.00
2019-01-16T10:26:05.792Z,1.00
2019-01-16T10:29:10.231Z,1.00
2019-01-16T10:32:22.591Z,1.00
2019-01-16T10:35:45.059Z,1.00
2019-01-16T10:38:50.680Z,1.00
2019-01-16T10:41:56.241Z,1.00
2019-01-16T10:44:54.471Z,1.00
2019-01-16T10:47:48.996Z,1.00
2019-01-16T10:51:10.930Z,1.00
2019-01-16T10:54:14.818Z,1.00
2019-01-16T10:57:13.702Z,1.00
2019-01-16T11:00:29.652Z,1.00
2019-01-16T11:03:38.293Z,1.00
2019-01-16T11:06:42.245Z,1.00
2019-01-16T11:09:44.013Z,1.00
2019-01-16T11:12:49.923Z,1.00
2019-01-16T11:15:54.127Z,1.00
2019-01-16T11:19:16.221Z,1.00
2019-01-16T11:22:22.049Z,1.00
2019-01-16T11:25:21.308Z,1.00
2019-01-16T11:28:27.288Z,1.00
2019-01-16T11:31:46.915Z,1.00
2019-01-16T11:34:52.719Z,1.00
2019-01-16T11:38:10.211Z,1.00
2019-01-16T11:41:10.038Z,1.00
2019-01-16T11:44:09.619Z,1.00
2019-01-16T11:47:21.606Z,1.00
2019-01-16T11:50:22.427Z,1.00
2019-01-16T11:53:26.561Z,1.00
2019-01-16T11:56:31.777Z,1.00
2019-01-16T11:59:42.215Z,1.00
2019-01-16T12:02:42.595Z,1.00
2019-01-16T12:05:58.639Z,1.00
2019-01-16T12:09:03.860Z,1.00
2019-01-16T12:12:08.800Z,1.00
2019-01-16T12:15:14.795Z,1.00
2019-01-16T12:18:26.060Z,1.00
2019-01-16T12:21:35.082Z,1.00
2019-01-16T12:24:40.152Z,1.00
2019-01-16T12:27:57.085Z,1.00
2019-01-16T12:31:10.986Z,1.00
2019-01-16T12:34:30.512Z,1.00
2019-01-16T12:37:34.203Z,1.00
2019-01-16T12:40:56.731Z,1.00
2019-01-16T12:44:02.582Z,1.00
2019-01-16T12:47:08.198Z,1.00
2019-01-16T12:50:23.769Z,1.00
2019-01-16T12:53:35.580Z,1.00
2019-01-16T12:57:09.279Z,1.00
2019-01-16T13:00:16.670Z,1.00
2019-01-16T13:03:32.329Z,1.00
2019-01-16T13:06:53.046Z,1.00
2019-01-16T13:10:01.595Z,1.00
2019-01-16T13:13:01.704Z,1.00
2019-01-16T13:16:11.766Z,1.00
2019-01-16T13:19:16.951Z,1.00
2019-01-16T13:22:21.657Z,1.00
2019-01-16T13:25:33.127Z,1.00
2019-01-16T13:28:39.593Z,1.00
2019-01-16T13:31:42.652Z,1.00
2019-01-16T13:34:46.624Z,1.00
2019-01-16T13:37:50.025Z,1.00
2019-01-16T13:41:02.845Z,1.00
2019-01-16T13:44:00.567Z,1.00
2019-01-16T13:47:07.120Z,1.00
2019-01-16T13:50:13.505Z,1.00
2019-01-16T13:53:24.962Z,1.00
2019-01-16T13:56:30.599Z,1.00
2019-01-16T13:59:27.039Z,1.00
2019-01-16T14:02:28.449Z,1.00
2019-01-16T14:05:38.929Z,1.00
2019-01-16T14:08:37.708Z,1.00
2019-01-16T14:11:44.791Z,1.00
2019-01-16T14:14:50.048Z,1.00
2019-01-16T14:17:56.650Z,1.00
2019-01-16T14:21:02.363Z,1.00
2019-01-16T14:24:15.140Z,1.00
2019-01-16T14:27:20.432Z,1.00
2019-01-16T14:30:24.264Z,1.00
2019-01-16T14:33:40.825Z,1.00
2019-01-16T14:37:02.658Z,1.00
2019-01-16T14:40:12.224Z,1.00
2019-01-16T14:43:32.314Z,1.00
2019-01-16T14:46:39.372Z,1.00
2019-01-16T14:50:01.868Z,1.00
2019-01-16T14:52:56.816Z,1.00
2019-01-16T14:56:13.130Z,1.00
2019-01-16T14:59:12.041Z,1.00
2019-01-16T15:02:17.100Z,1.00
2019-01-16T15:05:19.728Z,1.00
2019-01-16T15:08:36.808Z,1.00
2019-01-16T15:11:42.343Z,1.00
2019-01-16T15:14:48.533Z,1.00
2019-01-16T15:17:51.657Z,1.00
2019-01-16T15:20:50.826Z,1.00
2019-01-16T15:23:55.995Z,1.00
2019-01-16T15:27:01.642Z,1.00
2019-01-16T15:30:00.248Z,1.00
2019-01-16T15:33:06.023Z,1.00
2019-01-16T15:36:22.381Z,1.00
2019-01-16T15:39:32.345Z,1.00
2019-01-16T15:42:37.940Z,1.00
2019-01-16T15:45:47.732Z,1.00
2019-01-16T15:48:55.764Z,1.00
2019-01-16T15:52:01.350Z,1.00
2019-01-16T15:55:14.235Z,1.00
2019-01-16T15:58:25.925Z,1.00
2019-01-16T16:01:35.815Z,1.00
2019-01-16T16:04:40.548Z,1.00
2019-01-16T16:07:49.659Z,1.00
2019-01-16T16:10:55.504Z,1.00
2019-01-16T16:14:16.867Z,1.00
2019-01-16T16:17:22.899Z,1.00
2019-01-16T16:20:28.968Z,1.00
2019-01-16T16:23:32.315Z,1.00
2019-01-16T16:26:32.946Z,1.00
2019-01-16T16:29:54.087Z,1.00
2019-01-16T16:32:57.842Z,1.00
2019-01-16T16:36:15.378Z,1.00
2019-01-16T16:39:27.605Z,1.00
2019-01-16T16:42:32.416Z,1.00
2019-01-16T16:45:39.167Z,1.00
2019-01-16T16:48:46.430Z,1.00
2019-01-16T16:51:56.676Z,1.00
2019-01-16T16:55:15.635Z,1.00
2019-01-16T16:58:21.882Z,1.00
2019-01-16T17:01:27.092Z,1.00
2019-01-16T17:04:46.038Z,1.00
2019-01-16T17:07:42.731Z,1.00
2019-01-16T17:10:38.966Z,1.00
2019-01-16T17:13:57.026Z,1.00
2019-01-16T17:17:06.924Z,1.00
2019-01-16T17:20:15.682Z,1.00
2019-01-16T17:23:22.051Z,1.00
2019-01-16T17:26:38.429Z,1.00
2019-01-16T17:29:50.792Z,1.00
2019-01-16T17:32:50.933Z,1.00
2019-01-16T17:36:15.298Z,1.00
2019-01-16T17:39:19.000Z,1.00
2019-01-16T17:42:15.497Z,1.00
2019-01-16T17:45:23.611Z,1.00
2019-01-16T17:48:45.915Z,1.00
2019-01-16T17:52:01.454Z,1.00
2019-01-16T17:55:09.227Z,1.00
2019-01-16T17:58:36.066Z,1.00
2019-01-16T18:01:58.187Z,1.00
2019-01-16T18:05:19.959Z,1.00
2019-01-16T18:08:17.153Z,1.00
2019-01-16T18:11:18.011Z,1.00
2019-01-16T18:14:13.658Z,1.00
2019-01-16T18:17:18.116Z,1.00
2019-01-16T18:20:27.036Z,1.00
2019-01-16T18:23:30.158Z,1.00
2019-01-16T18:26:35.710Z,1.00
2019-01-16T18:29:42.323Z,1.00
2019-01-16T18:32:39.426Z,1.00
2019-01-16T18:35:48.563Z,1.00
2019-01-16T18:38:55.670Z,1.00
2019-01-16T18:42:11.339Z,1.00
2019-01-16T18:45:16.947Z,1.00
2019-01-16T18:48:19.757Z,1.00
2019-01-16T18:51:34.568Z,1.00
2019-01-16T18:54:40.556Z,1.00
2019-01-16T18:57:41.361Z,1.00
2019-01-16T19:00:47.307Z,1.00
2019-01-16T19:03:53.008Z,1.00
2019-01-16T19:07:11.871Z,1.00
2019-01-16T19:10:27.647Z,1.00
2019-01-16T19:13:34.751Z,1.00
2019-01-16T19:16:40.655Z,1.00
2019-01-16T19:19:38.970Z,1.00
2019-01-16T19:23:00.993Z,1.00
2019-01-16T19:26:03.127Z,1.00
2019-01-16T19:29:08.656Z,1.00
2019-01-16T19:32:06.874Z,1.00
2019-01-16T19:35:13.818Z,1.00
2019-01-16T19:38:30.532Z,1.00
2019-01-16T19:41:38.437Z,1.00
2019-01-16T19:44:42.670Z,1.00
2019-01-16T19:47:56.418Z,1.00
2019-01-16T19:51:02.292Z,1.00
2019-01-16T19:54:04.784Z,1.00
2019-01-16T19:57:10.521Z,1.00
2019-01-16T20:00:22.705Z,1.00
2019-01-16T20:03:27.301Z,1.00
2019-01-16T20:07:06.561Z,1.00
2019-01-16T20:10:12.700Z,1.00
2019-01-16T20:13:26.189Z,1.00
2019-01-16T20:16:37.486Z,1.00
2019-01-16T20:19:49.128Z,1.00
2019-01-16T20:22:57.372Z,1.00
2019-01-16T20:26:03.807Z,1.00
2019-01-16T20:29:00.111Z,1.00
2019-01-16T20:32:16.163Z,1.00
2019-01-16T20:35:23.215Z,1.00
2019-01-16T20:38:28.784Z,1.00
2019-01-16T20:41:34.247Z,1.00
2019-01-16T20:44:41.701Z,1.00
2019-01-16T20:47:56.941Z,1.00
2019-01-16T20:51:05.197Z,1.00
2019-01-16T20:54:11.089Z,1.00
2019-01-16T20:57:18.275Z,1.00
2019-01-16T21:00:21.959Z,1.00
2019-01-16T21:03:24.071Z,1.00
2019-01-16T21:06:29.063Z,1.00
2019-01-16T21:09:29.185Z,1.00
2019-01-16T21:12:36.138Z,1.00
2019-01-16T21:15:35.805Z,1.00
2019-01-16T21:18:49.040Z,1.00
2019-01-16T21:21:50.751Z,1.00
2019-01-16T21:25:01.657Z,1.00
2019-01-16T21:28:15.419Z,1.00
2019-01-16T21:31:33.876Z,1.00
2019-01-16T21:34:43.261Z,1.00
2019-01-16T21:37:49.280Z,1.00
2019-01-16T21:40:52.709Z,1.00
2019-01-16T21:43:58.712Z,1.00
2019-01-16T21:46:59.559Z,1.00
2019-01-16T21:50:05.339Z,1.00
2019-01-16T21:53:13.223Z,1.00
2019-01-16T21:56:23.350Z,1.00
2019-01-16T21:59:21.492Z,1.00
2019-01-16T22:02:27.165Z,1.00
2019-01-16T22:05:28.367Z,1.00
2019-01-16T22:08:44.519Z,1.00
2019-01-16T22:11:49.517Z,1.00
2019-01-16T22:15:02.023Z,1.00
2019-01-16T22:18:11.528Z,1.00
2019-01-16T22:21:11.304Z,1.00
2019-01-16T22:24:10.160Z,1.00
2019-01-16T22:27:22.773Z,1.00
2019-01-16T22:30:40.492Z,1.00
2019-01-16T22:33:44.696Z,1.00
2019-01-16T22:36:57.691Z,1.00
2019-01-16T22:40:04.551Z,1.00
2019-01-16T22:43:02.523Z,1.00
2019-01-16T22:46:01.915Z,1.00
2019-01-16T22:49:09.804Z,1.00
2019-01-16T22:52:16.503Z,1.00
2019-01-16T22:55:22.492Z,1.00
2019-01-16T22:58:32.364Z,1.00
2019-01-16T23:01:42.470Z,1.00
2019-01-16T23:04:48.314Z,1.00
2019-01-16T23:07:43.800Z,1.00
2019-01-16T23:10:50.526Z,1.00
2019-01-16T23:14:04.000Z,1.00
2019-01-16T23:17:17.906Z,1.00
2019-01-16T23:20:15.434Z,1.00
2019-01-16T23:23:26.273Z,1.00
2019-01-16T23:26:24.778Z,1.00
2019-01-16T23:29:26.815Z,1.00
2019-01-16T23:32:52.781Z,1.00
2019-01-16T23:36:11.151Z,1.00
2019-01-16T23:39:15.268Z,1.00
2019-01-16T23:42:21.498Z,1.00
2019-01-16T23:45:33.174Z,1.00
2019-01-16T23:48:39.873Z,1.00
2019-01-16T23:51:54.117Z,1.00
2019-01-16T23:55:18.771Z,1.00
2019-01-16T23:58:31.977Z,1.00
